Time;durP1;ratioP1;P1;durP2;ratioP2;P2;SDS_P1;SDS_P2;PMS_P1;PMS_P2;Temp;Humidity;BMP_temperature;BMP_pressure;BME280_temperature;BME280_humidity;BME280_pressure;Samples;Min_cycle;Max_cycle;Signal;HPM_P1;HPM_P2
2022/10/15 00:01:51;;;;;;;3.30;1.90;;;;;;;21.47;57.67;99096.09;4094129;28;20262;-33
2022/10/15 00:03:54;;;;;;;2.27;2.10;;;;;;;22.04;57.42;99060.66;4087329;28;20245;-35
2022/10/15 00:05:55;;;;;;;2.00;1.87;;;;;;;21.20;58.62;99114.88;4085072;28;20831;-33
2022/10/15 00:07:57;;;;;;;2.77;2.07;;;;;;;21.89;58.36;99057.78;4089693;28;20223;-36
2022/10/15 00:09:59;;;;;;;5.33;2.10;;;;;;;21.47;59.68;99083.38;4089610;28;20846;-33
2022/10/15 00:12:00;;;;;;;2.90;1.90;;;;;;;22.99;55.86;99021.59;4097094;28;20246;-31
2022/10/15 00:14:02;;;;;;;2.33;1.70;;;;;;;22.57;56.51;99036.63;4086381;28;20270;-35
2022/10/15 00:16:07;;;;;;;1.80;1.70;;;;;;;22.99;55.01;99027.00;4088099;28;20258;-32
2022/10/15 00:18:09;;;;;;;2.10;2.00;;;;;;;22.19;57.39;99060.03;4085041;28;20252;-35
2022/10/15 00:20:11;;;;;;;3.67;1.90;;;;;;;22.69;56.78;99028.34;4078525;28;20325;-37
2022/10/15 00:22:13;;;;;;;2.30;2.10;;;;;;;22.84;55.72;99017.66;4081592;28;20258;-36
2022/10/15 00:24:15;;;;;;;2.80;2.20;;;;;;;22.09;57.59;99058.03;4066360;28;20911;-37
2022/10/15 00:26:22;;;;;;;3.07;2.10;;;;;;;21.49;58.48;99091.25;4084846;28;20269;-37
2022/10/15 00:28:23;;;;;;;2.60;2.03;;;;;;;22.28;57.64;99034.16;4088439;28;20266;-33
2022/10/15 00:30:25;;;;;;;3.30;2.00;;;;;;;22.29;56.55;99026.88;4081222;28;20297;-37
2022/10/15 00:32:26;;;;;;;2.00;1.90;;;;;;;21.88;57.57;99061.53;4087156;28;20318;-35
2022/10/15 00:34:28;;;;;;;2.23;2.10;;;;;;;22.25;56.82;99031.97;4098569;28;20269;-32
2022/10/15 00:36:34;;;;;;;1.87;1.77;;;;;;;21.71;58.72;99077.81;4088077;28;20242;-39
2022/10/15 00:38:36;;;;;;;1.80;1.70;;;;;;;23.31;55.78;98997.13;4079496;28;20736;-36
2022/10/15 00:40:40;;;;;;;2.10;2.00;;;;;;;23.05;54.55;99003.47;4093496;28;20320;-35
2022/10/15 00:42:41;;;;;;;1.90;1.80;;;;;;;23.54;55.23;98995.91;4093493;28;20251;-34
2022/10/15 00:45:10;;;;;;;3.37;1.90;;;;;;;22.66;55.55;99042.44;4092577;28;20251;-36
2022/10/15 00:47:25;;;;;;;1.80;1.70;;;;;;;22.99;56.15;99029.72;4082809;28;20305;-32
2022/10/15 00:49:39;;;;;;;1.80;1.70;;;;;;;21.90;57.49;99092.72;4090560;28;20970;-34
2022/10/15 00:51:48;;;;;;;2.13;1.80;;;;;;;23.62;55.21;99016.34;4092119;28;20238;-36
2022/10/15 00:53:51;;;;;;;1.77;1.67;;;;;;;22.61;56.34;99077.59;4094535;28;20292;-33
2022/10/15 00:55:52;;;;;;;1.77;1.63;;;;;;;21.91;56.76;99094.31;4089268;28;20250;-32
2022/10/15 00:57:57;;;;;;;1.77;1.67;;;;;;;22.01;57.25;99063.88;4096062;28;20258;-34
2022/10/15 01:00:05;;;;;;;1.70;1.60;;;;;;;21.52;58.21;99102.41;4093061;28;20673;-33
2022/10/15 01:02:07;;;;;;;4.07;1.70;;;;;;;22.56;56.62;99058.59;4088853;28;20250;-32
2022/10/15 01:04:09;;;;;;;2.00;1.77;;;;;;;21.90;58.25;99100.81;4078396;28;20236;-35
2022/10/15 01:06:10;;;;;;;1.93;1.70;;;;;;;22.25;57.59;99075.28;4080931;28;20251;-33
2022/10/15 01:08:12;;;;;;;2.67;2.00;;;;;;;22.50;55.92;99041.44;4089052;28;20314;-32
2022/10/15 01:10:14;;;;;;;1.63;1.57;;;;;;;22.03;57.27;99079.88;4093770;28;20276;-34
2022/10/15 01:12:54;;;;;;;4.80;1.80;;;;;;;23.65;54.14;98996.00;4097473;28;20254;-34
2022/10/15 01:15:10;;;;;;;1.80;1.70;;;;;;;22.27;57.19;99099.38;4020367;28;20280;-38
2022/10/15 01:17:26;;;;;;;2.47;1.67;;;;;;;22.49;56.51;99061.50;4091226;28;20532;-32
2022/10/15 01:19:37;;;;;;;1.60;1.50;;;;;;;22.00;58.40;99077.66;4089970;28;20838;-32
2022/10/15 01:21:53;;;;;;;1.97;1.87;;;;;;;21.69;59.06;99077.25;4084638;28;20325;-32
2022/10/15 01:24:13;;;;;;;1.90;1.80;;;;;;;22.37;58.13;99026.44;4079007;28;20653;-35
2022/10/15 01:26:33;;;;;;;2.80;1.70;;;;;;;23.84;54.89;98971.91;4084448;28;20269;-33
2022/10/15 01:28:37;;;;;;;2.03;1.93;;;;;;;23.90;54.17;98974.38;4070629;28;20277;-34
2022/10/15 01:30:44;;;;;;;3.73;1.80;;;;;;;23.63;54.23;98979.97;4094281;28;20240;-32
2022/10/15 01:33:01;;;;;;;1.90;1.80;;;;;;;22.82;55.52;99022.50;4100390;28;20243;-34
2022/10/15 01:35:29;;;;;;;2.57;1.70;;;;;;;21.69;59.15;99082.66;4093260;28;20326;-34
2022/10/15 01:37:52;;;;;;;2.20;2.10;;;;;;;22.91;56.98;99003.06;4064675;28;20716;-35
2022/10/15 01:40:01;;;;;;;2.37;2.17;;;;;;;22.24;57.23;99035.72;4093811;28;20242;-37
2022/10/15 01:42:09;;;;;;;2.03;1.87;;;;;;;23.53;55.68;98983.41;4096605;28;20265;-37
2022/10/15 01:44:17;;;;;;;1.70;1.60;;;;;;;22.69;57.39;98989.59;4093116;28;20261;-35
2022/10/15 01:46:46;;;;;;;3.97;2.20;;;;;;;22.92;56.38;99007.41;4093724;28;20325;-38
2022/10/15 01:48:51;;;;;;;2.00;1.90;;;;;;;23.10;56.08;98982.66;4090245;28;20426;-35
2022/10/15 01:50:56;;;;;;;2.17;1.87;;;;;;;22.89;56.71;98999.78;4088718;28;20305;-34
2022/10/15 01:53:01;;;;;;;2.90;1.87;;;;;;;22.45;57.59;99044.09;4064269;28;20263;-35
2022/10/15 01:55:06;;;;;;;6.53;1.83;;;;;;;22.30;57.41;99031.22;4083912;28;20270;-34
2022/10/15 01:57:11;;;;;;;1.90;1.80;;;;;;;22.65;56.75;98998.25;4083188;28;20692;-38
2022/10/15 01:59:13;;;;;;;1.70;1.60;;;;;;;21.76;58.94;99050.81;4086924;28;20237;-33
2022/10/15 02:01:15;;;;;;;2.20;2.00;;;;;;;23.02;57.25;98993.97;4083664;28;20238;-32
2022/10/15 02:03:17;;;;;;;2.30;2.10;;;;;;;22.69;56.46;99000.44;4090848;28;20254;-36
2022/10/15 02:05:28;;;;;;;2.03;1.93;;;;;;;22.91;56.92;99016.59;4076118;28;20258;-39
2022/10/15 02:07:52;;;;;;;2.50;1.80;;;;;;;21.88;59.57;99072.34;4084125;28;20284;-39
2022/10/15 02:10:00;;;;;;;2.00;1.90;;;;;;;22.80;57.80;98984.00;4078757;28;20282;-35
2022/10/15 02:12:04;;;;;;;4.20;2.10;;;;;;;23.64;55.40;98961.81;4087602;28;20320;-34
2022/10/15 02:14:17;;;;;;;2.00;1.90;;;;;;;24.19;53.56;98971.22;4083053;28;20273;-32
2022/10/15 02:16:29;;;;;;;2.67;2.27;;;;;;;24.24;53.63;98962.28;4085662;28;20699;-37
2022/10/15 02:18:46;;;;;;;3.50;2.27;;;;;;;23.32;55.39;99033.25;4080758;28;20270;-36
2022/10/15 02:20:58;;;;;;;3.17;2.40;;;;;;;23.57;55.18;99006.28;4073962;28;20262;-36
2022/10/15 02:23:18;;;;;;;2.03;1.93;;;;;;;21.23;59.56;99100.88;4093693;28;20258;-32
2022/10/15 02:25:23;;;;;;;3.47;2.47;;;;;;;22.83;56.94;99007.09;4084479;28;20762;-38
2022/10/15 02:27:27;;;;;;;2.10;1.90;;;;;;;22.12;58.98;99048.59;4093103;28;20815;-33
2022/10/15 02:29:33;;;;;;;2.73;2.10;;;;;;;23.31;56.39;98990.91;4100229;28;20313;-34
2022/10/15 02:31:38;;;;;;;1.80;1.70;;;;;;;21.85;59.09;99065.56;4071073;28;20238;-38
2022/10/15 02:33:41;;;;;;;3.47;2.13;;;;;;;22.52;57.83;99046.59;4099908;28;21177;-32
2022/10/15 02:35:46;;;;;;;2.43;1.73;;;;;;;21.78;58.35;99069.53;4090757;28;20490;-35
2022/10/15 02:37:51;;;;;;;1.80;1.70;;;;;;;21.28;60.23;99087.44;4093635;28;20659;-35
2022/10/15 02:39:53;;;;;;;1.93;1.83;;;;;;;21.71;59.06;99069.69;4096093;28;20957;-32
2022/10/15 02:41:56;;;;;;;1.90;1.70;;;;;;;22.44;58.47;99005.38;4091423;28;20242;-31
2022/10/15 02:43:57;;;;;;;2.90;1.93;;;;;;;22.11;59.22;99057.78;4089515;28;20327;-31
2022/10/15 02:45:59;;;;;;;2.20;2.00;;;;;;;23.46;55.84;98974.72;4096495;28;20238;-32
2022/10/15 02:48:01;;;;;;;3.07;1.93;;;;;;;23.28;55.94;98980.56;4098486;28;20290;-34
2022/10/15 02:50:03;;;;;;;3.20;2.10;;;;;;;23.27;55.79;98982.47;4098318;28;20267;-35
2022/10/15 02:52:04;;;;;;;2.47;2.10;;;;;;;22.20;58.12;99063.56;4089384;28;20518;-36
2022/10/15 02:54:07;;;;;;;2.30;2.10;;;;;;;22.11;59.60;99052.34;4083704;28;20292;-37
2022/10/15 02:56:08;;;;;;;4.70;1.90;;;;;;;22.79;57.23;99009.50;4085373;28;20255;-33
2022/10/15 02:58:10;;;;;;;2.00;1.80;;;;;;;20.76;61.69;99099.22;4088406;28;20262;-31
2022/10/15 03:00:12;;;;;;;1.87;1.77;;;;;;;21.83;59.31;99054.19;4096844;28;20329;-36
2022/10/15 03:02:14;;;;;;;2.17;1.90;;;;;;;23.27;56.49;98968.09;4090304;28;20269;-39
2022/10/15 03:04:19;;;;;;;3.53;1.90;;;;;;;23.70;55.19;98963.44;4084046;28;20250;-35
2022/10/15 03:06:21;;;;;;;2.73;2.20;;;;;;;23.30;55.59;98981.13;4073707;28;20254;-35
2022/10/15 03:08:23;;;;;;;3.13;1.80;;;;;;;23.33;56.19;99011.28;4097525;28;20266;-37
2022/10/15 03:10:24;;;;;;;2.00;1.90;;;;;;;23.24;55.24;99012.81;4092817;28;20266;-34
2022/10/15 03:12:26;;;;;;;2.37;2.00;;;;;;;22.32;57.63;99058.03;4096048;28;20693;-37
2022/10/15 03:14:28;;;;;;;2.20;2.00;;;;;;;22.32;57.53;99072.41;4093195;28;20261;-36
2022/10/15 03:16:32;;;;;;;2.60;2.40;;;;;;;22.26;59.16;99057.94;4085937;28;20807;-32
2022/10/15 03:18:34;;;;;;;2.70;2.17;;;;;;;22.99;56.88;99011.56;4084218;28;20270;-34
2022/10/15 03:20:40;;;;;;;3.47;2.10;;;;;;;23.57;55.58;98990.00;4080231;28;20250;-36
2022/10/15 03:22:42;;;;;;;5.40;2.20;;;;;;;22.83;56.55;99066.72;4090450;28;20230;-34
2022/10/15 03:24:44;;;;;;;3.57;2.10;;;;;;;23.01;56.52;99025.69;4082039;28;20346;-32
2022/10/15 03:26:45;;;;;;;3.30;2.03;;;;;;;22.40;57.66;99071.94;4086638;28;20247;-35
2022/10/15 03:28:47;;;;;;;2.07;1.83;;;;;;;22.14;57.46;99097.06;4085862;28;20254;-34
2022/10/15 03:30:49;;;;;;;2.10;2.00;;;;;;;22.87;56.77;99054.25;4093772;28;20230;-35
2022/10/15 03:32:50;;;;;;;5.00;2.20;;;;;;;23.24;56.11;99014.72;4088004;28;20254;-33
2022/10/15 03:34:52;;;;;;;2.17;1.97;;;;;;;23.88;54.97;99006.41;4086476;28;20269;-35
2022/10/15 03:36:54;;;;;;;2.20;2.00;;;;;;;23.68;55.82;99009.03;4090544;28;20254;-34
2022/10/15 03:38:55;;;;;;;4.50;1.80;;;;;;;21.82;58.74;99122.91;4084317;28;20258;-36
2022/10/15 03:40:57;;;;;;;1.80;1.70;;;;;;;22.92;56.71;99031.81;4093963;28;20234;-34
2022/10/15 03:42:59;;;;;;;2.60;2.17;;;;;;;24.24;53.81;98998.41;4088088;28;20273;-35
2022/10/15 03:45:01;;;;;;;3.03;2.00;;;;;;;22.67;57.06;99095.53;4087557;28;20215;-36
2022/10/15 03:47:03;;;;;;;2.50;1.80;;;;;;;23.76;54.99;99024.84;4089538;28;20242;-35
2022/10/15 03:49:05;;;;;;;5.00;2.67;;;;;;;22.31;56.52;99108.69;4082971;28;20250;-34
2022/10/15 03:51:06;;;;;;;1.90;1.80;;;;;;;23.56;55.56;99025.53;4082106;28;20338;-33
2022/10/15 03:53:08;;;;;;;3.37;2.10;;;;;;;22.91;55.83;99066.25;4094957;28;20250;-34
2022/10/15 03:55:10;;;;;;;4.40;1.87;;;;;;;22.73;56.47;99062.00;4096007;28;20269;-34
2022/10/15 03:57:12;;;;;;;4.00;1.90;;;;;;;22.99;56.81;99071.19;4095463;28;20853;-34
2022/10/15 03:59:15;;;;;;;5.60;2.17;;;;;;;23.25;56.53;99054.31;4089239;28;20258;-37
2022/10/15 04:01:17;;;;;;;2.20;1.67;;;;;;;23.26;56.37;99048.63;4085915;28;20648;-34
2022/10/15 04:03:19;;;;;;;2.50;2.30;;;;;;;23.06;56.37;99070.97;4085874;28;20872;-33
2022/10/15 04:05:21;;;;;;;3.00;2.60;;;;;;;23.48;55.45;99037.66;4089897;28;20254;-37
2022/10/15 04:07:23;;;;;;;2.70;2.50;;;;;;;23.74;54.63;99027.00;4096812;28;20273;-32
2022/10/15 04:09:24;;;;;;;3.40;2.20;;;;;;;23.04;55.95;99056.88;4072428;28;20262;-36
2022/10/15 04:11:26;;;;;;;2.50;2.30;;;;;;;23.07;56.70;99066.41;4073928;28;20261;-38
2022/10/15 04:13:28;;;;;;;3.33;1.80;;;;;;;21.71;59.68;99134.63;4094068;28;20333;-38
2022/10/15 04:15:30;;;;;;;2.53;2.33;;;;;;;22.67;57.29;99087.41;4100340;28;20277;-35
2022/10/15 04:17:31;;;;;;;4.03;2.20;;;;;;;23.83;54.50;99025.41;4088552;28;20955;-37
2022/10/15 04:19:33;;;;;;;2.43;1.97;;;;;;;23.46;55.05;99061.53;4089069;28;20322;-36
2022/10/15 04:21:35;;;;;;;2.50;2.30;;;;;;;23.77;54.38;99037.31;4093736;28;20703;-35
2022/10/15 04:23:37;;;;;;;2.83;1.97;;;;;;;23.67;54.27;99042.69;4070106;28;20274;-37
2022/10/15 04:25:39;;;;;;;4.10;1.80;;;;;;;24.49;52.74;99029.44;4091099;28;20304;-33
2022/10/15 04:27:40;;;;;;;2.77;2.10;;;;;;;24.43;52.87;99046.81;4079100;28;20282;-32
2022/10/15 04:29:42;;;;;;;2.60;1.80;;;;;;;24.28;52.48;99050.31;4099639;28;20262;-36
2022/10/15 04:31:44;;;;;;;2.77;1.80;;;;;;;24.08;53.36;99070.03;4090569;28;20241;-37
2022/10/15 04:33:47;;;;;;;1.80;1.70;;;;;;;23.43;54.79;99126.34;4099238;28;20304;-35
2022/10/15 04:36:05;;;;;;;3.03;1.90;;;;;;;24.16;53.17;99074.97;4090180;28;20290;-37
2022/10/15 04:38:07;;;;;;;2.70;1.87;;;;;;;22.80;55.38;99151.22;4090739;28;20231;-36
2022/10/15 04:40:09;;;;;;;1.70;1.60;;;;;;;23.82;53.50;99077.22;4087796;28;20696;-34
2022/10/15 04:42:11;;;;;;;1.80;1.70;;;;;;;23.39;54.33;99121.44;4095950;28;20230;-35
2022/10/15 04:44:12;;;;;;;2.10;2.00;;;;;;;23.80;53.89;99112.78;4094755;28;20262;-37
2022/10/15 04:46:14;;;;;;;3.23;2.27;;;;;;;24.28;53.22;99091.06;4089076;28;20261;-34
2022/10/15 04:48:16;;;;;;;2.00;1.90;;;;;;;24.26;53.16;99085.06;4095771;28;20273;-39
2022/10/15 04:50:17;;;;;;;2.17;1.97;;;;;;;23.77;53.03;99121.44;4100476;28;20293;-37
2022/10/15 04:52:19;;;;;;;1.77;1.67;;;;;;;23.58;53.83;99119.16;4077922;28;20319;-36
2022/10/15 04:54:20;;;;;;;2.27;1.70;;;;;;;23.55;54.22;99133.25;4084776;28;20245;-34
2022/10/15 04:56:22;;;;;;;1.70;1.60;;;;;;;23.73;53.62;99109.50;4086206;28;20234;-35
2022/10/15 04:58:24;;;;;;;2.13;1.70;;;;;;;24.71;51.85;99064.53;4081854;28;20316;-34
2022/10/15 05:00:26;;;;;;;2.07;1.87;;;;;;;23.73;52.84;99117.63;4083944;28;20239;-35
2022/10/15 05:02:27;;;;;;;2.77;1.70;;;;;;;24.01;53.15;99100.16;4090101;28;20860;-36
2022/10/15 05:04:29;;;;;;;3.27;2.40;;;;;;;24.08;52.61;99098.00;4073817;28;20247;-38
2022/10/15 05:06:32;;;;;;;2.07;1.97;;;;;;;22.91;54.19;99168.41;4090089;28;20253;-33
2022/10/15 05:08:35;;;;;;;2.33;2.00;;;;;;;23.33;53.66;99146.06;4083425;28;20406;-33
2022/10/15 05:10:37;;;;;;;2.10;1.90;;;;;;;25.03;51.01;99075.19;4096889;28;20756;-34
2022/10/15 05:12:38;;;;;;;2.50;2.10;;;;;;;24.25;51.45;99089.69;4093621;28;20238;-35
2022/10/15 05:14:40;;;;;;;2.30;2.10;;;;;;;24.55;51.32;99096.31;4088009;28;20252;-35
2022/10/15 05:16:42;;;;;;;2.20;1.93;;;;;;;23.11;54.09;99174.06;4096115;28;20238;-36
2022/10/15 05:18:46;;;;;;;3.97;2.07;;;;;;;24.47;51.62;99088.69;4088166;28;20897;-36
2022/10/15 05:20:48;;;;;;;2.63;2.20;;;;;;;24.19;51.91;99098.88;4074835;28;20314;-35
2022/10/15 05:22:49;;;;;;;2.27;2.10;;;;;;;23.90;52.67;99120.97;4094002;28;20265;-34
2022/10/15 05:24:51;;;;;;;2.83;2.20;;;;;;;23.54;52.71;99145.16;4095188;28;20281;-34
2022/10/15 05:26:53;;;;;;;2.70;2.30;;;;;;;24.61;51.41;99102.56;4092867;28;20235;-34
2022/10/15 05:28:56;;;;;;;2.33;2.13;;;;;;;23.77;52.57;99156.72;4088350;28;20273;-35
2022/10/15 05:31:10;;;;;;;3.93;2.50;;;;;;;24.55;51.14;99101.75;4091261;28;20243;-38
2022/10/15 05:33:19;;;;;;;2.57;2.17;;;;;;;23.09;53.77;99191.69;4084149;28;20313;-35
2022/10/15 05:35:21;;;;;;;5.53;2.83;;;;;;;24.18;51.50;99118.19;4093102;28;20289;-35
2022/10/15 05:37:22;;;;;;;3.33;2.33;;;;;;;23.55;52.53;99167.66;4098049;28;20265;-36
2022/10/15 05:39:25;;;;;;;3.00;2.70;;;;;;;23.22;53.55;99202.13;4086126;28;20873;-35
2022/10/15 05:41:27;;;;;;;3.10;1.90;;;;;;;23.97;52.61;99139.75;4080400;28;20263;-35
2022/10/15 05:43:29;;;;;;;2.53;2.33;;;;;;;23.33;54.00;99175.91;4079929;28;20768;-34
2022/10/15 05:45:31;;;;;;;2.47;2.07;;;;;;;23.26;54.22;99186.16;4088116;28;20262;-34
2022/10/15 05:47:32;;;;;;;2.27;1.87;;;;;;;23.35;53.51;99179.16;4090788;28;20322;-37
2022/10/15 05:49:34;;;;;;;2.37;2.17;;;;;;;23.22;53.39;99187.75;4091132;28;20346;-33
2022/10/15 05:51:36;;;;;;;3.40;2.17;;;;;;;24.12;52.56;99120.81;4094492;28;20277;-35
2022/10/15 05:53:39;;;;;;;2.17;2.07;;;;;;;22.47;54.19;99204.47;4095805;28;20668;-32
2022/10/15 05:55:41;;;;;;;2.37;2.17;;;;;;;22.82;54.15;99219.53;4093699;28;20748;-35
2022/10/15 05:57:42;;;;;;;2.03;1.90;;;;;;;22.82;54.52;99216.84;4091328;28;20245;-36
2022/10/15 05:59:44;;;;;;;2.23;2.03;;;;;;;23.95;52.70;99131.06;4092606;28;20272;-34
2022/10/15 06:01:46;;;;;;;2.60;2.23;;;;;;;23.33;54.16;99157.75;4072190;28;20267;-33
2022/10/15 06:03:47;;;;;;;2.10;2.00;;;;;;;23.22;53.61;99193.19;4087392;28;20265;-37
2022/10/15 06:05:49;;;;;;;2.60;2.40;;;;;;;23.87;52.35;99124.25;4085183;28;20353;-36
2022/10/15 06:07:51;;;;;;;3.57;2.10;;;;;;;23.96;52.31;99159.88;4086330;28;20254;-38
2022/10/15 06:09:53;;;;;;;5.03;2.40;;;;;;;24.70;50.72;99120.00;4088482;28;20264;-33
2022/10/15 06:11:54;;;;;;;3.23;2.33;;;;;;;24.44;51.47;99151.69;4084134;28;20250;-35
2022/10/15 06:13:56;;;;;;;2.47;2.27;;;;;;;24.14;51.25;99164.03;4084504;28;20313;-35
2022/10/15 06:15:57;;;;;;;2.70;2.50;;;;;;;24.45;50.68;99150.63;4084136;28;20261;-37
2022/10/15 06:17:59;;;;;;;5.53;2.27;;;;;;;24.19;51.59;99179.56;4082238;28;20315;-34
2022/10/15 06:20:01;;;;;;;3.93;2.37;;;;;;;23.38;52.65;99220.19;4079975;28;20274;-33
2022/10/15 06:22:03;;;;;;;5.20;2.60;;;;;;;23.58;52.85;99187.00;4090908;28;20869;-35
2022/10/15 06:24:05;;;;;;;2.43;2.23;;;;;;;24.22;51.59;99151.88;4077385;28;20265;-33
2022/10/15 06:26:10;;;;;;;3.20;2.30;;;;;;;24.73;50.75;99137.66;4079414;28;20627;-34
2022/10/15 06:28:12;;;;;;;2.17;1.90;;;;;;;24.21;51.37;99174.69;4077169;28;20262;-34
2022/10/15 06:30:14;;;;;;;2.40;2.20;;;;;;;23.74;52.50;99215.09;4096786;28;20273;-35
2022/10/15 06:32:15;;;;;;;2.73;2.27;;;;;;;24.58;50.60;99141.97;4083014;28;20748;-35
2022/10/15 06:34:17;;;;;;;2.20;2.00;;;;;;;24.23;51.54;99199.72;4090476;28;20329;-34
2022/10/15 06:36:20;;;;;;;3.37;2.20;;;;;;;24.99;50.34;99149.44;4080278;28;20309;-35
2022/10/15 06:38:23;;;;;;;3.00;2.20;;;;;;;24.16;51.70;99183.59;4095630;28;20250;-36
2022/10/15 06:40:25;;;;;;;2.43;1.93;;;;;;;24.91;50.47;99130.94;4091653;28;20292;-35
2022/10/15 06:42:27;;;;;;;2.23;2.03;;;;;;;25.02;49.95;99144.28;4074833;28;20235;-38
2022/10/15 06:44:28;;;;;;;3.13;1.90;;;;;;;25.19;50.50;99138.59;4091124;28;20751;-35
2022/10/15 06:46:30;;;;;;;2.10;1.90;;;;;;;24.85;50.33;99171.72;4084424;28;20253;-31
2022/10/15 06:48:32;;;;;;;2.77;2.00;;;;;;;25.32;49.62;99114.63;4092787;28;20258;-37
2022/10/15 06:50:36;;;;;;;2.30;2.00;;;;;;;25.14;49.40;99145.91;4090833;28;21049;-35
2022/10/15 06:52:38;;;;;;;3.83;1.90;;;;;;;25.41;49.08;99140.25;4080166;28;20258;-34
2022/10/15 06:54:39;;;;;;;2.30;2.20;;;;;;;24.96;50.01;99180.72;4093867;28;20265;-39
2022/10/15 06:56:41;;;;;;;2.23;2.13;;;;;;;25.47;49.36;99158.19;4078391;28;20265;-36
2022/10/15 06:58:43;;;;;;;2.30;2.10;;;;;;;25.34;49.39;99172.31;4086698;28;20258;-34
2022/10/15 07:00:44;;;;;;;3.30;2.17;;;;;;;24.21;51.68;99221.69;4093230;28;20237;-38
2022/10/15 07:02:46;;;;;;;3.03;2.50;;;;;;;23.67;52.22;99221.78;4093887;28;20247;-37
2022/10/15 07:04:48;;;;;;;2.57;2.37;;;;;;;23.67;53.34;99205.50;4089071;28;20317;-37
2022/10/15 07:06:49;;;;;;;2.20;2.10;;;;;;;23.78;53.42;99179.28;4082396;28;20269;-32
2022/10/15 07:08:51;;;;;;;2.83;2.00;;;;;;;24.13;53.07;99144.19;4091532;28;20257;-39
2022/10/15 07:10:53;;;;;;;4.37;2.67;;;;;;;23.38;54.12;99205.78;4084589;28;20811;-37
2022/10/15 07:12:54;;;;;;;2.60;2.40;;;;;;;23.70;54.24;99156.16;4095403;28;20234;-36
2022/10/15 07:14:56;;;;;;;2.30;2.10;;;;;;;22.29;56.95;99232.69;4086312;28;20262;-33
2022/10/15 07:16:58;;;;;;;2.83;1.97;;;;;;;22.41;55.54;99219.84;4084908;28;20310;-40
2022/10/15 07:18:59;;;;;;;2.23;2.03;;;;;;;22.95;55.57;99202.91;4093078;28;20298;-34
2022/10/15 07:21:03;;;;;;;2.80;1.97;;;;;;;22.68;55.84;99205.56;4092948;28;20261;-35
2022/10/15 07:23:05;;;;;;;2.40;2.20;;;;;;;23.21;55.31;99170.63;4091678;28;20238;-36
2022/10/15 07:25:08;;;;;;;2.03;1.93;;;;;;;22.53;55.82;99233.28;4091514;28;20269;-34
2022/10/15 07:27:10;;;;;;;2.20;2.10;;;;;;;23.06;55.61;99179.44;4081490;28;20242;-33
2022/10/15 07:29:19;;;;;;;3.83;2.40;;;;;;;23.68;53.32;99145.56;4098307;28;20252;-37
2022/10/15 07:31:21;;;;;;;2.40;2.20;;;;;;;22.60;55.92;99230.38;4089093;28;20674;-36
2022/10/15 07:33:23;;;;;;;2.70;2.13;;;;;;;22.75;56.37;99213.50;4087619;28;20668;-37
2022/10/15 07:35:26;;;;;;;7.80;2.00;;;;;;;23.48;54.52;99177.94;4089612;28;20952;-33
2022/10/15 07:37:28;;;;;;;3.23;2.70;;;;;;;23.48;54.77;99167.06;4094584;28;20246;-34
2022/10/15 07:39:29;;;;;;;4.33;2.63;;;;;;;22.54;55.52;99220.53;4074419;28;20262;-36
2022/10/15 07:41:31;;;;;;;2.17;2.07;;;;;;;23.79;53.81;99135.59;4097579;28;20725;-36
2022/10/15 07:43:34;;;;;;;2.53;2.33;;;;;;;22.53;55.95;99241.41;4090149;28;20258;-35
2022/10/15 07:45:36;;;;;;;2.33;2.00;;;;;;;23.10;54.45;99206.88;4090243;28;20269;-36
2022/10/15 07:47:39;;;;;;;2.20;2.10;;;;;;;23.19;53.90;99189.06;4096858;28;20258;-37
2022/10/15 07:49:41;;;;;;;2.30;1.80;;;;;;;24.01;53.13;99140.88;4087439;28;20226;-38
2022/10/15 07:51:42;;;;;;;3.00;2.10;;;;;;;24.30;52.98;99138.59;4092199;28;20317;-35
2022/10/15 07:53:46;;;;;;;4.27;2.50;;;;;;;23.66;53.92;99193.03;4092865;28;20242;-35
2022/10/15 07:55:47;;;;;;;4.70;2.90;;;;;;;22.68;55.34;99238.09;4081637;28;20266;-35
2022/10/15 07:57:49;;;;;;;3.70;2.77;;;;;;;23.70;54.02;99167.81;4089792;28;20297;-39
2022/10/15 07:59:51;;;;;;;3.33;3.10;;;;;;;23.57;53.79;99198.13;4092488;28;20601;-35
2022/10/15 08:01:52;;;;;;;2.13;1.93;;;;;;;23.41;54.88;99199.03;4094384;28;20265;-36
2022/10/15 08:03:54;;;;;;;2.43;2.23;;;;;;;23.50;55.05;99190.19;4092494;28;20262;-34
2022/10/15 08:05:58;;;;;;;2.37;2.10;;;;;;;23.55;54.63;99186.66;4091327;28;20262;-34
2022/10/15 08:08:00;;;;;;;6.40;2.13;;;;;;;23.93;53.15;99163.91;4098461;28;20735;-33
2022/10/15 08:10:01;;;;;;;4.10;2.60;;;;;;;23.75;53.80;99188.75;4099807;28;20326;-37
2022/10/15 08:12:05;;;;;;;3.03;2.60;;;;;;;23.26;55.09;99229.53;4101102;28;20386;-36
2022/10/15 08:14:07;;;;;;;2.17;2.07;;;;;;;23.12;54.42;99235.38;4092388;28;20647;-36
2022/10/15 08:16:11;;;;;;;2.40;2.20;;;;;;;22.72;54.79;99239.22;4084886;28;20671;-35
2022/10/15 08:18:13;;;;;;;2.83;2.40;;;;;;;24.37;53.04;99165.53;4098028;28;20234;-33
2022/10/15 08:20:14;;;;;;;3.07;2.47;;;;;;;22.02;57.57;99282.06;4095723;28;20318;-36
2022/10/15 08:22:16;;;;;;;2.20;2.10;;;;;;;23.53;55.04;99196.97;4091132;28;20258;-34
2022/10/15 08:24:18;;;;;;;2.17;2.07;;;;;;;23.32;54.69;99232.06;4088144;28;20262;-34
2022/10/15 08:26:19;;;;;;;3.03;2.40;;;;;;;23.24;54.29;99229.00;4087125;28;20227;-38
2022/10/15 08:28:21;;;;;;;2.93;2.23;;;;;;;23.76;54.41;99177.63;4089128;28;20269;-36
2022/10/15 08:30:23;;;;;;;3.20;2.50;;;;;;;23.36;54.80;99207.94;4079812;28;20237;-35
2022/10/15 08:32:25;;;;;;;5.43;2.63;;;;;;;23.29;54.39;99221.72;4092213;28;20270;-36
2022/10/15 08:34:27;;;;;;;2.63;2.43;;;;;;;23.72;54.28;99213.69;4097535;28;20332;-35
2022/10/15 08:36:28;;;;;;;2.30;2.20;;;;;;;22.99;56.03;99255.56;4087639;28;20257;-36
2022/10/15 08:38:30;;;;;;;2.87;2.40;;;;;;;23.55;54.76;99205.66;4085359;28;20261;-36
2022/10/15 08:40:32;;;;;;;2.77;2.43;;;;;;;23.66;53.88;99221.00;4081392;28;20235;-36
2022/10/15 08:42:40;;;;;;;3.40;2.00;;;;;;;23.48;55.06;99221.34;4087302;28;20285;-38
2022/10/15 08:44:48;;;;;;;2.70;2.50;;;;;;;22.81;56.42;99259.41;4092076;28;20253;-39
2022/10/15 08:46:58;;;;;;;2.93;2.67;;;;;;;22.16;57.83;99292.56;4083204;28;20674;-35
2022/10/15 08:49:01;;;;;;;2.63;2.23;;;;;;;21.28;59.05;99276.69;4087302;28;20333;-33
2022/10/15 08:51:10;;;;;;;3.30;2.20;;;;;;;22.86;57.35;99214.44;4078793;28;20226;-36
2022/10/15 08:53:14;;;;;;;3.13;2.83;;;;;;;23.91;54.77;99190.50;4086197;28;20255;-36
2022/10/15 08:55:19;;;;;;;3.43;2.77;;;;;;;23.07;57.01;99229.09;4090635;28;20902;-33
2022/10/15 08:57:38;;;;;;;2.90;2.60;;;;;;;23.49;55.20;99231.94;4081219;28;20238;-36
2022/10/15 08:59:53;;;;;;;4.80;3.10;;;;;;;23.28;56.14;99243.66;4091030;28;20269;-34
2022/10/15 09:02:02;;;;;;;2.80;2.60;;;;;;;23.48;55.83;99233.00;4094373;28;20313;-34
2022/10/15 09:04:20;;;;;;;4.17;2.40;;;;;;;22.53;57.26;99278.53;4093745;28;20266;-35
2022/10/15 09:06:28;;;;;;;4.10;2.43;;;;;;;23.34;56.44;99218.22;4084621;28;20238;-35
2022/10/15 09:09:17;;;;;;;3.23;2.93;;;;;;;24.89;53.17;99171.19;4092222;28;20269;-35
2022/10/15 09:11:29;;;;;;;2.30;2.10;;;;;;;24.00;55.05;99200.88;4089987;28;20254;-38
2022/10/15 09:13:40;;;;;;;2.90;2.40;;;;;;;24.24;53.59;99202.13;4095769;28;20444;-35
2022/10/15 09:15:56;;;;;;;2.73;2.13;;;;;;;24.60;53.55;99196.06;4096708;28;20640;-34
2022/10/15 09:17:57;;;;;;;2.50;2.10;;;;;;;22.82;57.17;99304.38;4086623;28;20316;-35
2022/10/15 09:20:03;;;;;;;4.83;2.20;;;;;;;23.90;55.45;99218.72;4085852;28;20703;-33
2022/10/15 09:22:10;;;;;;;5.80;2.20;;;;;;;23.25;56.05;99277.56;4075688;28;20267;-35
2022/10/15 09:24:19;;;;;;;2.73;2.13;;;;;;;24.81;53.79;99170.59;4102282;28;20257;-35
2022/10/15 09:27:05;;;;;;;3.23;2.00;;;;;;;23.06;56.25;99290.59;4101881;23;20707;-66
2022/10/15 09:29:34;;;;;;;3.00;2.00;;;;;;;24.36;54.01;99203.81;4107945;28;20668;-66
2022/10/15 09:31:51;;;;;;;2.63;1.80;;;;;;;23.94;54.35;99247.00;4122963;28;20313;-65
2022/10/15 09:33:57;;;;;;;2.20;2.00;;;;;;;22.86;56.78;99318.28;4134552;28;20331;-65
2022/10/15 09:36:02;;;;;;;2.67;1.93;;;;;;;23.74;55.89;99244.13;4134789;28;20228;-66
2022/10/15 09:38:47;;;;;;;2.53;2.33;;;;;;;24.78;53.20;99202.94;4130694;28;20234;-66
2022/10/15 09:41:06;;;;;;;2.00;1.80;;;;;;;23.11;55.08;99285.25;4154424;28;20240;-66
2022/10/15 09:43:26;;;;;;;2.17;1.97;;;;;;;23.62;55.83;99251.59;4142068;28;20269;-65
2022/10/15 09:45:27;;;;;;;2.60;1.83;;;;;;;23.95;54.32;99255.97;4113437;28;20912;-65
2022/10/15 09:47:31;;;;;;;4.37;2.03;;;;;;;24.60;53.61;99209.66;4140008;28;20247;-65
2022/10/15 09:49:33;;;;;;;2.83;1.97;;;;;;;23.19;55.62;99316.53;4132904;28;20241;-65